Time;durP1;ratioP1;P1;durP2;ratioP2;P2;SDS_P1;SDS_P2;PMS_P1;PMS_P2;Temp;Humidity;BMP_temperature;BMP_pressure;BME280_temperature;BME280_humidity;BME280_pressure;Samples;Min_cycle;Max_cycle;Signal;HPM_P1;HPM_P2
2023/03/14 00:02:19;;;;;;;;;;;8.50;99.90;;;;;;4939100;29;19927;-86
2023/03/14 00:04:44;;;;;;;;;;;8.60;99.90;;;;;;4955165;28;19933;-86
2023/03/14 00:07:10;;;;;;;;;;;8.70;99.90;;;;;;4953441;28;19926;-86
2023/03/14 00:09:42;;;;;;;;;;;8.80;99.90;;;;;;4969385;28;20013;-86
2023/03/14 00:12:09;;;;;;;;;;;8.80;99.90;;;;;;4971291;28;19927;-87
2023/03/14 00:14:34;;;;;;;;;;;8.80;99.90;;;;;;4938870;29;19927;-85
2023/03/14 00:17:00;;;;;;;;;;;8.80;99.90;;;;;;4938906;29;20304;-86
2023/03/14 00:19:25;;;;;;;;;;;8.90;99.90;;;;;;4939079;28;19934;-86
2023/03/14 00:21:54;;;;;;;;;;;8.90;99.90;;;;;;4955078;28;20048;-88
2023/03/14 00:24:19;;;;;;;;;;;8.90;99.90;;;;;;4953669;28;19970;-86
2023/03/14 00:26:47;;;;;;;;;;;7.80;99.90;;;;;;4970928;28;19934;-86
2023/03/14 00:29:13;;;;;;;;;;;9.00;99.90;;;;;;4938822;29;19972;-86
2023/03/14 00:31:39;;;;;;;;;;;9.10;99.90;;;;;;4938588;29;20324;-85
2023/03/14 00:34:07;;;;;;;;;;;9.10;99.90;;;;;;4938502;29;19962;-85
2023/03/14 00:36:32;;;;;;;;;;;9.20;99.90;;;;;;4970655;28;19927;-86
2023/03/14 00:38:58;;;;;;;;;;;9.20;99.90;;;;;;4952868;28;19927;-85
2023/03/14 00:41:24;;;;;;;;;;;9.20;99.90;;;;;;4938532;29;19968;-86
2023/03/14 00:43:49;;;;;;;;;;;9.20;99.90;;;;;;4953690;28;19933;-86
2023/03/14 00:46:15;;;;;;;;;;;9.20;99.90;;;;;;4938475;29;19933;-85
2023/03/14 00:48:44;;;;;;;;;;;9.20;99.90;;;;;;4951804;28;19930;-85
2023/03/14 00:51:11;;;;;;;;;;;9.00;99.90;;;;;;4938367;28;20017;-85
2023/03/14 00:53:37;;;;;;;;;;;8.70;99.90;;;;;;4953145;28;19926;-87
2023/03/14 00:56:07;;;;;;;;;;;9.20;99.90;;;;;;4954000;28;19926;-85
2023/03/14 00:58:33;;;;;;;;;;;9.20;99.90;;;;;;4938387;29;19926;-86
2023/03/14 01:00:59;;;;;;;;;;;9.10;99.90;;;;;;4954285;28;19933;-86
2023/03/14 01:03:24;;;;;;;;;;;9.30;99.90;;;;;;4952602;28;19935;-86
2023/03/14 01:05:50;;;;;;;;;;;9.30;99.90;;;;;;4934144;29;19927;-85
2023/03/14 01:08:16;;;;;;;;;;;9.40;99.90;;;;;;4932957;28;19926;-86
2023/03/14 01:10:41;;;;;;;;;;;9.40;99.90;;;;;;4938545;29;19989;-86
2023/03/14 01:13:08;;;;;;;;;;;9.60;99.90;;;;;;4937472;29;20047;-86
2023/03/14 01:15:34;;;;;;;;;;;9.30;99.90;;;;;;4954266;28;19952;-85
2023/03/14 01:17:59;;;;;;;;;;;9.40;99.90;;;;;;4937380;28;20044;-86
2023/03/14 01:20:25;;;;;;;;;;;9.30;99.90;;;;;;4938135;29;19926;-86
2023/03/14 01:22:50;;;;;;;;;;;9.30;99.90;;;;;;4952290;28;19930;-85
2023/03/14 01:25:19;;;;;;;;;;;9.30;99.90;;;;;;4953540;28;19933;-86
2023/03/14 01:27:45;;;;;;;;;;;9.40;99.90;;;;;;4949177;28;19930;-85
2023/03/14 01:30:11;;;;;;;;;;;9.40;99.90;;;;;;4938497;29;19926;-85
2023/03/14 01:32:40;;;;;;;;;;;9.60;99.90;;;;;;4953595;28;19933;-86
2023/03/14 01:35:06;;;;;;;;;;;9.50;99.90;;;;;;4953953;28;19981;-86
2023/03/14 01:37:31;;;;;;;;;;;9.60;99.90;;;;;;4952043;28;19930;-86
2023/03/14 01:39:57;;;;;;;;;;;9.60;99.90;;;;;;4954197;28;20318;-85
2023/03/14 01:42:22;;;;;;;;;;;9.50;99.90;;;;;;4953536;28;19939;-86
2023/03/14 01:44:54;;;;;;;;;;;9.60;99.90;;;;;;4953728;28;19926;-86
2023/03/14 01:47:20;;;;;;;;;;;9.60;99.90;;;;;;4953304;28;20401;-85
2023/03/14 01:49:50;;;;;;;;;;;9.60;99.90;;;;;;4953733;28;19926;-86
2023/03/14 01:52:16;;;;;;;;;;;10.00;99.90;;;;;;4952184;28;20375;-86
2023/03/14 01:54:47;;;;;;;;;;;9.60;99.90;;;;;;4954144;28;20032;-86
2023/03/14 01:57:29;;;;;;;;;;;9.70;99.90;;;;;;4937693;29;19927;-86
2023/03/14 01:59:57;;;;;;;;;;;9.60;99.90;;;;;;4950070;28;20335;-86
2023/03/14 02:02:24;;;;;;;;;;;9.70;99.90;;;;;;4966335;28;19954;-86
2023/03/14 02:04:51;;;;;;;;;;;9.70;99.90;;;;;;4966584;28;20290;-85
2023/03/14 02:07:21;;;;;;;;;;;9.70;99.90;;;;;;4930079;28;19930;-86
2023/03/14 02:09:48;;;;;;;;;;;9.70;99.90;;;;;;4932116;29;19934;-86
2023/03/14 02:12:15;;;;;;;;;;;9.70;99.90;;;;;;4969455;28;19937;-86
2023/03/14 02:14:47;;;;;;;;;;;9.70;99.90;;;;;;4953361;28;20352;-86
2023/03/14 02:17:14;;;;;;;;;;;9.60;99.90;;;;;;4953384;28;19937;-85
2023/03/14 02:19:43;;;;;;;;;;;9.70;99.90;;;;;;4937423;29;19927;-85
2023/03/14 02:22:15;;;;;;;;;;;9.60;99.90;;;;;;4952247;28;20358;-86
2023/03/14 02:24:54;;;;;;;;;;;9.60;99.90;;;;;;4953547;28;19933;-85
2023/03/14 02:27:20;;;;;;;;;;;9.50;99.90;;;;;;4954461;28;19934;-86
2023/03/14 02:29:49;;;;;;;;;;;9.50;99.90;;;;;;4953598;28;19934;-85
2023/03/14 02:32:16;;;;;;;;;;;9.50;99.90;;;;;;4937537;29;19937;-86
2023/03/14 02:34:43;;;;;;;;;;;9.40;99.90;;;;;;4953754;28;20326;-85
2023/03/14 02:37:09;;;;;;;;;;;9.40;99.90;;;;;;4970746;28;19977;-85
2023/03/14 02:39:44;;;;;;;;;;;9.30;99.90;;;;;;4941410;29;19926;-85
2023/03/14 02:42:09;;;;;;;;;;;9.30;99.90;;;;;;4958582;28;20399;-85
2023/03/14 02:44:37;;;;;;;;;;;9.30;99.90;;;;;;4957133;28;19977;-87
2023/03/14 02:47:04;;;;;;;;;;;9.30;99.90;;;;;;4966158;28;19931;-85
2023/03/14 02:49:31;;;;;;;;;;;9.30;99.90;;;;;;4934005;29;19934;-85
2023/03/14 02:51:57;;;;;;;;;;;9.30;99.90;;;;;;4956092;28;20395;-87
2023/03/14 02:54:22;;;;;;;;;;;9.40;99.90;;;;;;4962117;28;19927;-87
2023/03/14 02:56:48;;;;;;;;;;;9.40;99.90;;;;;;4959028;28;20412;-85
2023/03/14 02:59:13;;;;;;;;;;;8.30;99.90;;;;;;4956490;28;19930;-86
2023/03/14 03:01:39;;;;;;;;;;;9.40;99.90;;;;;;4956190;28;19926;-86
2023/03/14 03:04:05;;;;;;;;;;;9.40;99.90;;;;;;4956297;28;20013;-86
2023/03/14 03:06:30;;;;;;;;;;;7.80;99.90;;;;;;4935772;29;19933;-87
2023/03/14 03:08:56;;;;;;;;;;;9.30;99.90;;;;;;4962293;28;19934;-85
2023/03/14 03:11:22;;;;;;;;;;;7.60;99.90;;;;;;4957579;28;19981;-86
2023/03/14 03:13:47;;;;;;;;;;;9.20;99.90;;;;;;4953891;28;19926;-85
2023/03/14 03:16:14;;;;;;;;;;;9.20;99.90;;;;;;4941025;29;20021;-86
2023/03/14 03:18:40;;;;;;;;;;;9.20;99.90;;;;;;4952723;28;19927;-87
2023/03/14 03:21:08;;;;;;;;;;;8.50;99.90;;;;;;4942727;29;20422;-86
2023/03/14 03:23:34;;;;;;;;;;;9.30;99.90;;;;;;4944537;28;19934;-86
2023/03/14 03:25:59;;;;;;;;;;;9.00;99.90;;;;;;4959666;28;20571;-86
2023/03/14 03:28:30;;;;;;;;;;;8.90;99.90;;;;;;4956858;28;19927;-87
2023/03/14 03:30:56;;;;;;;;;;;9.00;99.90;;;;;;4941392;29;20311;-86
2023/03/14 03:33:23;;;;;;;;;;;8.00;99.90;;;;;;4940307;29;19938;-87
2023/03/14 03:35:49;;;;;;;;;;;8.80;99.90;;;;;;4940319;29;19980;-87
2023/03/14 03:38:16;;;;;;;;;;;8.80;99.90;;;;;;4937190;29;19981;-86
2023/03/14 03:40:41;;;;;;;;;;;9.50;99.90;;;;;;4972285;28;20391;-85
2023/03/14 03:43:07;;;;;;;;;;;8.70;99.90;;;;;;4939437;29;19961;-85
2023/03/14 03:45:33;;;;;;;;;;;8.60;99.90;;;;;;4956199;28;19926;-85
2023/03/14 03:47:58;;;;;;;;;;;8.60;99.90;;;;;;4955321;28;19984;-86
2023/03/14 03:50:24;;;;;;;;;;;8.60;99.90;;;;;;4940251;29;20333;-88
2023/03/14 03:52:50;;;;;;;;;;;8.60;99.90;;;;;;4957258;28;19933;-86
2023/03/14 03:55:15;;;;;;;;;;;8.50;99.90;;;;;;4962583;28;20272;-88
2023/03/14 03:57:41;;;;;;;;;;;8.60;99.90;;;;;;4955443;28;19926;-86
2023/03/14 04:00:10;;;;;;;;;;;8.70;99.90;;;;;;4935403;28;19933;-88
2023/03/14 04:02:38;;;;;;;;;;;8.70;99.90;;;;;;4939256;29;19933;-86
2023/03/14 04:05:04;;;;;;;;;;;8.60;99.90;;;;;;4942177;28;20331;-86
2023/03/14 04:07:31;;;;;;;;;;;8.60;99.90;;;;;;4969440;28;19934;-84
2023/03/14 04:09:57;;;;;;;;;;;8.60;99.90;;;;;;4951942;28;19973;-86
2023/03/14 04:12:23;;;;;;;;;;;8.60;99.90;;;;;;4971301;28;19977;-86
2023/03/14 04:14:48;;;;;;;;;;;8.60;99.90;;;;;;4938892;29;19930;-85
2023/03/14 04:17:14;;;;;;;;;;;8.60;99.90;;;;;;4954970;28;19976;-86
2023/03/14 04:19:42;;;;;;;;;;;8.60;99.90;;;;;;4955130;28;19926;-86
2023/03/14 04:22:08;;;;;;;;;;;8.60;99.90;;;;;;4937424;29;20426;-86
2023/03/14 04:24:34;;;;;;;;;;;8.50;99.90;;;;;;4923052;29;19993;-85
2023/03/14 04:27:00;;;;;;;;;;;8.60;99.90;;;;;;4954571;28;20339;-86
2023/03/14 04:29:25;;;;;;;;;;;8.60;99.90;;;;;;4953935;28;20403;-86
2023/03/14 04:31:51;;;;;;;;;;;8.60;99.90;;;;;;4938635;29;19934;-86
2023/03/14 04:34:17;;;;;;;;;;;8.60;99.90;;;;;;4954511;28;19949;-86
2023/03/14 04:36:45;;;;;;;;;;;8.50;99.90;;;;;;4954570;28;19972;-86
2023/03/14 04:39:11;;;;;;;;;;;8.50;99.90;;;;;;4934463;29;20013;-86
2023/03/14 04:41:36;;;;;;;;;;;7.40;99.90;;;;;;4957233;28;19970;-87
2023/03/14 04:44:02;;;;;;;;;;;8.80;99.90;;;;;;4939431;29;19926;-87
2023/03/14 04:46:28;;;;;;;;;;;8.50;99.90;;;;;;4938213;29;19927;-86
2023/03/14 04:48:55;;;;;;;;;;;7.60;99.90;;;;;;4947659;28;19930;-88
2023/03/14 04:51:27;;;;;;;;;;;7.00;99.90;;;;;;4952790;28;20359;-87
2023/03/14 04:53:53;;;;;;;;;;;8.50;99.90;;;;;;4953015;28;19933;-87
2023/03/14 04:56:21;;;;;;;;;;;8.50;99.90;;;;;;4954364;28;19926;-87
2023/03/14 04:58:49;;;;;;;;;;;8.50;99.90;;;;;;4937909;28;19930;-86
2023/03/14 05:01:17;;;;;;;;;;;8.60;99.90;;;;;;4953916;28;20013;-87
2023/03/14 05:03:45;;;;;;;;;;;8.60;99.90;;;;;;4937676;28;19933;-86
2023/03/14 05:06:11;;;;;;;;;;;8.50;99.90;;;;;;4932613;29;19927;-87
2023/03/14 05:08:37;;;;;;;;;;;8.40;99.90;;;;;;4930325;29;20315;-88
2023/03/14 05:11:02;;;;;;;;;;;8.50;99.90;;;;;;4938017;29;20013;-87
2023/03/14 05:13:28;;;;;;;;;;;8.50;99.90;;;;;;4937328;28;19977;-88
2023/03/14 05:16:02;;;;;;;;;;;8.70;99.90;;;;;;4954167;28;19933;-87
2023/03/14 05:18:28;;;;;;;;;;;8.40;99.90;;;;;;4953967;28;19930;-86
2023/03/14 05:20:56;;;;;;;;;;;8.40;99.90;;;;;;4953511;28;19934;-89
2023/03/14 05:23:21;;;;;;;;;;;8.40;99.90;;;;;;4951416;28;19978;-87
2023/03/14 05:25:47;;;;;;;;;;;8.30;99.90;;;;;;4953909;28;19981;-87
2023/03/14 05:28:18;;;;;;;;;;;8.40;99.90;;;;;;4938105;29;20270;-88
2023/03/14 05:30:44;;;;;;;;;;;8.40;99.90;;;;;;4921789;29;19931;-87
2023/03/14 05:33:09;;;;;;;;;;;8.40;99.90;;;;;;4949189;28;19980;-87
2023/03/14 05:35:37;;;;;;;;;;;8.30;99.90;;;;;;4946995;28;20384;-89
2023/03/14 05:38:03;;;;;;;;;;;8.40;99.90;;;;;;4929580;29;20195;-88
2023/03/14 05:40:29;;;;;;;;;;;7.10;99.90;;;;;;4929559;29;20040;-87
2023/03/14 05:42:54;;;;;;;;;;;8.40;99.90;;;;;;4950967;28;20013;-88
2023/03/14 05:45:20;;;;;;;;;;;7.70;99.90;;;;;;4945673;28;19926;-88
2023/03/14 05:47:56;;;;;;;;;;;8.40;99.90;;;;;;4946798;28;19969;-88
2023/03/14 05:50:21;;;;;;;;;;;8.40;99.90;;;;;;4932972;28;19958;-88
2023/03/14 05:52:49;;;;;;;;;;;8.70;99.90;;;;;;4942090;28;19927;-86
2023/03/14 05:55:15;;;;;;;;;;;8.70;99.90;;;;;;4963675;28;19926;-88
2023/03/14 05:57:43;;;;;;;;;;;8.30;99.90;;;;;;4948101;28;19937;-88
2023/03/14 06:00:09;;;;;;;;;;;8.60;99.90;;;;;;4936689;29;19930;-88
2023/03/14 06:02:34;;;;;;;;;;;8.30;99.90;;;;;;4930682;29;19978;-88
2023/03/14 06:05:03;;;;;;;;;;;8.40;99.90;;;;;;4937962;29;20017;-88
2023/03/14 06:07:31;;;;;;;;;;;8.30;99.90;;;;;;4920231;29;19930;-87
2023/03/14 06:09:59;;;;;;;;;;;8.30;99.90;;;;;;4951352;28;19977;-88
2023/03/14 06:12:28;;;;;;;;;;;8.20;99.90;;;;;;4956614;28;20367;-87
2023/03/14 06:14:53;;;;;;;;;;;8.30;99.90;;;;;;4940193;29;19938;-87
2023/03/14 06:17:19;;;;;;;;;;;8.40;99.90;;;;;;4941876;29;20004;-88
2023/03/14 06:19:49;;;;;;;;;;;7.40;99.90;;;;;;4941580;29;19974;-88
2023/03/14 06:22:14;;;;;;;;;;;8.30;99.90;;;;;;4939467;29;19931;-87
2023/03/14 06:24:42;;;;;;;;;;;7.70;99.90;;;;;;4956451;28;19937;-88
2023/03/14 06:27:08;;;;;;;;;;;10.00;99.90;;;;;;4952289;28;20256;-88
2023/03/14 06:29:34;;;;;;;;;;;8.30;99.90;;;;;;4957217;28;19926;-89
2023/03/14 06:31:59;;;;;;;;;;;8.30;99.90;;;;;;4953878;28;19926;-88
2023/03/14 06:34:27;;;;;;;;;;;8.20;99.90;;;;;;4957054;28;20295;-87
2023/03/14 06:36:55;;;;;;;;;;;8.20;99.90;;;;;;4956199;28;20430;-87
2023/03/14 06:39:24;;;;;;;;;;;8.20;99.90;;;;;;4942068;29;20421;-89
2023/03/14 06:41:49;;;;;;;;;;;8.30;99.90;;;;;;4964963;28;20256;-88
2023/03/14 06:44:15;;;;;;;;;;;8.00;99.90;;;;;;4941756;29;19930;-88
2023/03/14 06:46:41;;;;;;;;;;;7.60;99.90;;;;;;4965197;28;20346;-88
2023/03/14 06:49:06;;;;;;;;;;;5.70;99.90;;;;;;4940753;29;20451;-87
2023/03/14 06:51:35;;;;;;;;;;;7.20;99.90;;;;;;4933476;28;19930;-88
2023/03/14 06:54:06;;;;;;;;;;;7.60;99.90;;;;;;4938136;28;20025;-87
2023/03/14 06:56:32;;;;;;;;;;;6.80;99.90;;;;;;4954338;28;19933;-88
2023/03/14 06:58:58;;;;;;;;;;;6.60;99.90;;;;;;4954538;28;19922;-86
2023/03/14 07:01:25;;;;;;;;;;;7.00;99.90;;;;;;4950999;28;19950;-87
2023/03/14 07:03:52;;;;;;;;;;;6.40;99.90;;;;;;4933794;29;20336;-88
2023/03/14 07:06:18;;;;;;;;;;;6.40;99.90;;;;;;4946461;28;20025;-85
2023/03/14 07:08:44;;;;;;;;;;;6.00;99.90;;;;;;4949092;28;20041;-88
2023/03/14 07:11:11;;;;;;;;;;;5.80;99.90;;;;;;4967516;28;19936;-87
2023/03/14 07:13:40;;;;;;;;;;;6.00;99.90;;;;;;4950928;28;19962;-88
2023/03/14 07:16:06;;;;;;;;;;;6.20;99.90;;;;;;4953895;28;19973;-87
2023/03/14 07:18:31;;;;;;;;;;;5.30;99.90;;;;;;4936262;28;20375;-87
2023/03/14 07:21:02;;;;;;;;;;;5.60;99.90;;;;;;4955090;28;19933;-90
2023/03/14 07:23:28;;;;;;;;;;;4.90;99.90;;;;;;4949409;28;20350;-88
2023/03/14 07:25:54;;;;;;;;;;;5.70;99.90;;;;;;4935869;28;19934;-88
2023/03/14 07:28:19;;;;;;;;;;;3.40;99.90;;;;;;4935289;28;19954;-87
2023/03/14 07:30:49;;;;;;;;;;;5.70;99.90;;;;;;4955347;28;19926;-87
2023/03/14 07:33:18;;;;;;;;;;;5.10;99.90;;;;;;4936734;28;20021;-88
2023/03/14 07:35:44;;;;;;;;;;;4.50;99.90;;;;;;4933691;28;21413;-88
2023/03/14 07:38:09;;;;;;;;;;;5.00;99.90;;;;;;4952143;28;19926;-89
2023/03/14 07:40:38;;;;;;;;;;;5.20;99.90;;;;;;4947372;28;19934;-88
2023/03/14 07:43:06;;;;;;;;;;;4.50;99.90;;;;;;4948387;28;20325;-89
2023/03/14 07:45:31;;;;;;;;;;;2.10;99.90;;;;;;4934154;28;19990;-88
2023/03/14 07:47:57;;;;;;;;;;;4.10;99.90;;;;;;4964415;28;19926;-89
2023/03/14 07:53:17;;;;;;;;;;;2.60;99.90;;;;;;4968816;28;19926;-90
2023/03/14 07:55:45;;;;;;;;;;;4.10;99.90;;;;;;4938048;28;19926;-88
2023/03/14 07:58:16;;;;;;;;;;;7.30;99.90;;;;;;4962486;28;19981;-88
2023/03/14 08:00:45;;;;;;;;;;;3.70;99.90;;;;;;4935539;29;19930;-88
2023/03/14 08:03:10;;;;;;;;;;;5.00;99.90;;;;;;4951623;28;19930;-88
2023/03/14 08:05:48;;;;;;;;;;;;;;;;;;;;;
2023/03/14 08:08:15;;;;;;;;;;;4.40;99.90;;;;;;4935304;29;19948;-89
2023/03/14 08:10:40;;;;;;;;;;;4.40;99.90;;;;;;4933739;29;20370;-88
2023/03/14 08:13:06;;;;;;;;;;;4.20;99.90;;;;;;4952813;28;19931;-89
2023/03/14 08:15:42;;;;;;;;;;;6.20;99.90;;;;;;4942798;28;19930;-88
2023/03/14 08:18:18;;;;;;;;;;;4.50;99.90;;;;;;4927880;29;19981;-88
2023/03/14 08:20:51;;;;;;;;;;;4.50;99.90;;;;;;4932874;29;19981;-88
2023/03/14 08:23:26;;;;;;;;;;;4.30;99.90;;;;;;4958348;28;19930;-88
2023/03/14 08:25:52;;;;;;;;;;;4.70;99.90;;;;;;4933057;28;19934;-87
2023/03/14 08:28:18;;;;;;;;;;;4.80;99.90;;;;;;4931906;29;19990;-88
2023/03/14 08:30:44;;;;;;;;;;;6.70;99.90;;;;;;4964920;28;20022;-85
2023/03/14 08:33:09;;;;;;;;;;;4.90;99.90;;;;;;4945583;28;19930;-89
2023/03/14 08:35:37;;;;;;;;;;;5.00;99.90;;;;;;4949904;28;19926;-87
2023/03/14 08:38:03;;;;;;;;;;;5.10;99.90;;;;;;4947083;28;19926;-87
2023/03/14 08:40:28;;;;;;;;;;;5.00;99.90;;;;;;4938891;28;19930;-87
2023/03/14 08:43:12;;;;;;;;;;;;;;;;;;;;;
2023/03/14 08:45:46;;;;;;;;;;;5.20;99.90;;;;;;4947262;28;19927;-89
2023/03/14 08:48:11;;;;;;;;;;;3.90;99.90;;;;;;4966330;28;19934;-85
2023/03/14 08:50:38;;;;;;;;;;;5.30;99.90;;;;;;4970178;28;19927;-90
2023/03/14 08:53:03;;;;;;;;;;;8.10;99.90;;;;;;4933446;28;19952;-87
2023/03/14 08:55:31;;;;;;;;;;;5.50;99.90;;;;;;4949723;28;20013;-89
2023/03/14 08:57:57;;;;;;;;;;;5.30;99.90;;;;;;4937132;28;19977;-88
2023/03/14 09:00:41;;;;;;;;;;;5.70;99.90;;;;;;4933319;29;20304;-87
2023/03/14 09:03:12;;;;;;;;;;;3.50;99.90;;;;;;4949641;28;20022;-88
2023/03/14 09:05:37;;;;;;;;;;;5.70;99.90;;;;;;4933799;28;19982;-87
2023/03/14 09:08:05;;;;;;;;;;;4.70;99.90;;;;;;4933348;28;19934;-87
2023/03/14 09:10:31;;;;;;;;;;;5.70;99.90;;;;;;4948559;28;20639;-90
2023/03/14 09:12:58;;;;;;;;;;;6.00;99.90;;;;;;4928163;29;19927;-88
2023/03/14 09:15:31;;;;;;;;;;;6.60;99.90;;;;;;4947925;28;20323;-87
2023/03/14 09:18:08;;;;;;;;;;;6.20;99.90;;;;;;4948209;28;19926;-88
2023/03/14 09:20:34;;;;;;;;;;;6.20;99.90;;;;;;4961485;28;20013;-87
2023/03/14 09:23:00;;;;;;;;;;;5.90;99.90;;;;;;4941920;28;20013;-87
2023/03/14 09:25:35;;;;;;;;;;;6.10;99.90;;;;;;4931238;29;19934;-88
2023/03/14 09:28:01;;;;;;;;;;;6.50;99.90;;;;;;4932114;28;19934;-89
2023/03/14 09:30:27;;;;;;;;;;;6.40;99.90;;;;;;4966538;28;20034;-89
2023/03/14 09:32:57;;;;;;;;;;;6.10;99.90;;;;;;4933830;29;19937;-89
2023/03/14 09:35:23;;;;;;;;;;;6.60;99.90;;;;;;4948638;28;19942;-89
2023/03/14 09:37:51;;;;;;;;;;;6.80;99.90;;;;;;4948038;28;19927;-88
2023/03/14 09:40:23;;;;;;;;;;;6.10;99.90;;;;;;4931838;28;19933;-89
2023/03/14 09:42:53;;;;;;;;;;;6.00;99.90;;;;;;4926353;29;19934;-87
2023/03/14 09:45:25;;;;;;;;;;;6.00;99.90;;;;;;4945967;28;20021;-88
2023/03/14 09:47:52;;;;;;;;;;;6.20;99.90;;;;;;4936406;28;20405;-89
2023/03/14 09:50:17;;;;;;;;;;;6.40;99.90;;;;;;4954935;28;20017;-88
2023/03/14 09:52:46;;;;;;;;;;;6.20;99.90;;;;;;4936073;29;20026;-90
2023/03/14 09:55:23;;;;;;;;;;;6.20;99.90;;;;;;4951050;28;19950;-88
2023/03/14 09:57:55;;;;;;;;;;;8.30;99.90;;;;;;4936193;28;19927;-88
2023/03/14 10:00:22;;;;;;;;;;;6.20;99.90;;;;;;4949645;28;19927;-87
2023/03/14 10:02:53;;;;;;;;;;;6.40;99.90;;;;;;4937677;28;19978;-87
2023/03/14 10:05:20;;;;;;;;;;;6.50;99.90;;;;;;4938520;28;19938;-88
2023/03/14 10:07:46;;;;;;;;;;;6.50;99.90;;;;;;4934342;28;19926;-87
2023/03/14 10:10:17;;;;;;;;;;;6.80;99.90;;;;;;4953655;28;20049;-88
2023/03/14 10:12:45;;;;;;;;;;;6.30;99.90;;;;;;4952611;28;20357;-87
2023/03/14 10:15:17;;;;;;;;;;;4.60;99.90;;;;;;4937847;29;19933;-87
2023/03/14 10:17:46;;;;;;;;;;;7.70;99.90;;;;;;4959172;28;19948;-87
2023/03/14 10:20:32;;;;;;;;;;;6.30;99.90;;;;;;4932373;28;19934;-88
2023/03/14 10:23:01;;;;;;;;;;;6.30;99.90;;;;;;4931431;28;19942;-87
2023/03/14 10:25:35;;;;;;;;;;;6.30;99.90;;;;;;4954186;28;19930;-89
2023/03/14 10:28:10;;;;;;;;;;;4.60;99.90;;;;;;4953049;28;19955;-89
2023/03/14 10:30:50;;;;;;;;;;;6.90;99.90;;;;;;4936410;28;19927;-89
2023/03/14 10:33:26;;;;;;;;;;;6.50;99.90;;;;;;4951334;28;20362;-90
2023/03/14 10:35:56;;;;;;;;;;;6.60;99.90;;;;;;4939270;28;19930;-91
2023/03/14 10:38:24;;;;;;;;;;;6.70;99.90;;;;;;4930297;28;19935;-88
2023/03/14 10:40:52;;;;;;;;;;;6.70;99.90;;;;;;4944103;28;19935;-89
2023/03/14 10:43:26;;;;;;;;;;;6.90;99.90;;;;;;4949825;28;19990;-89
2023/03/14 10:45:59;;;;;;;;;;;6.40;99.90;;;;;;4967156;28;19938;-89
2023/03/14 10:48:33;;;;;;;;;;;6.60;99.90;;;;;;4928586;28;20302;-89
2023/03/14 10:51:02;;;;;;;;;;;7.10;99.90;;;;;;4949106;28;19942;-88
2023/03/14 10:53:32;;;;;;;;;;;6.80;99.90;;;;;;4951831;28;19926;-88
2023/03/14 10:56:02;;;;;;;;;;;6.60;99.90;;;;;;4951971;28;19930;-89
2023/03/14 10:58:41;;;;;;;;;;;6.90;99.90;;;;;;4949638;28;20378;-88
2023/03/14 11:01:26;;;;;;;;;;;7.00;99.90;;;;;;4938014;29;20064;-89
2023/03/14 11:04:03;;;;;;;;;;;6.80;99.90;;;;;;4967005;28;19927;-90
2023/03/14 11:06:36;;;;;;;;;;;7.10;99.90;;;;;;4936617;28;19926;-88
2023/03/14 11:09:10;;;;;;;;;;;6.70;99.90;;;;;;4950871;28;19942;-87
2023/03/14 11:11:45;;;;;;;;;;;6.70;99.90;;;;;;4937161;28;19930;-89
2023/03/14 11:14:23;;;;;;;;;;;7.90;99.90;;;;;;4951938;28;19992;-87
2023/03/14 11:17:09;;;;;;;;;;;7.00;99.90;;;;;;4969552;28;19926;-89
2023/03/14 11:20:04;;;;;;;;;;;6.50;99.90;;;;;;4952796;28;19957;-90
2023/03/14 11:22:33;;;;;;;;;;;7.00;99.90;;;;;;4935493;28;19934;-90
2023/03/14 11:25:21;;;;;;;;;;;6.80;99.90;;;;;;4934018;28;19973;-88
2023/03/14 11:28:01;;;;;;;;;;;6.90;99.90;;;;;;4968293;28;19927;-88
2023/03/14 11:30:29;;;;;;;;;;;6.90;99.90;;;;;;4979506;28;19965;-91
2023/03/14 11:32:58;;;;;;;;;;;6.90;99.90;;;;;;4948077;28;19973;-91
2023/03/14 11:35:34;;;;;;;;;;;5.70;99.90;;;;;;4960180;28;19930;-90
2023/03/14 11:38:27;;;;;;;;;;;5.70;99.90;;;;;;4954599;28;19934;-90
2023/03/14 11:40:54;;;;;;;;;;;6.60;99.90;;;;;;4949768;28;19927;-89
2023/03/14 11:43:26;;;;;;;;;;;5.60;99.90;;;;;;4957785;28;19934;-88
2023/03/14 11:45:54;;;;;;;;;;;7.40;99.90;;;;;;4965553;28;19930;-90
2023/03/14 11:48:23;;;;;;;;;;;7.00;99.90;;;;;;4931733;29;19927;-89
2023/03/14 11:50:54;;;;;;;;;;;7.00;99.90;;;;;;4936379;28;20290;-90
2023/03/14 11:53:44;;;;;;;;;;;7.20;99.90;;;;;;4935875;28;20125;-88
2023/03/14 11:56:14;;;;;;;;;;;7.30;99.90;;;;;;4951790;28;20641;-88
2023/03/14 11:58:46;;;;;;;;;;;7.60;99.80;;;;;;4933424;28;19926;-88
2023/03/14 12:01:16;;;;;;;;;;;7.30;99.40;;;;;;4936575;28;19962;-89
2023/03/14 12:03:49;;;;;;;;;;;5.50;99.90;;;;;;4952475;28;20426;-89
2023/03/14 12:06:36;;;;;;;;;;;8.00;99.90;;;;;;4932853;28;20680;-88
2023/03/14 12:09:06;;;;;;;;;;;7.40;99.90;;;;;;4931363;28;20062;-90
2023/03/14 12:11:38;;;;;;;;;;;8.20;99.90;;;;;;4951828;28;19926;-88
2023/03/14 12:14:16;;;;;;;;;;;6.40;99.90;;;;;;4950435;28;19931;-88
2023/03/14 12:16:46;;;;;;;;;;;8.50;99.90;;;;;;4951550;28;19989;-87
2023/03/14 12:19:24;;;;;;;;;;;8.70;99.90;;;;;;4936620;28;19949;-88
2023/03/14 12:22:05;;;;;;;;;;;8.50;99.90;;;;;;4950917;28;19934;-88
2023/03/14 12:24:38;;;;;;;;;;;7.70;99.90;;;;;;4951232;28;19926;-87
2023/03/14 12:27:10;;;;;;;;;;;8.50;99.90;;;;;;4944740;28;19927;-89
2023/03/14 12:29:59;;;;;;;;;;;8.50;99.90;;;;;;4948851;28;19934;-89
2023/03/14 12:32:27;;;;;;;;;;;8.20;99.90;;;;;;4932491;28;19982;-89
2023/03/14 12:34:55;;;;;;;;;;;8.10;99.90;;;;;;4936897;28;19926;-87
2023/03/14 12:37:38;;;;;;;;;;;8.00;99.90;;;;;;4935035;28;19962;-88
2023/03/14 12:40:17;;;;;;;;;;;8.40;99.90;;;;;;4934760;29;19930;-89
2023/03/14 12:43:01;;;;;;;;;;;8.00;99.90;;;;;;4968921;28;19927;-89
2023/03/14 12:45:31;;;;;;;;;;;10.20;99.90;;;;;;4935487;28;20039;-89
2023/03/14 12:48:08;;;;;;;;;;;7.70;99.90;;;;;;4950248;28;19973;-87
2023/03/14 12:50:42;;;;;;;;;;;8.80;99.90;;;;;;4952900;28;19931;-88
2023/03/14 12:53:40;;;;;;;;;;;;;;;;;;;;;
2023/03/14 12:56:13;;;;;;;;;;;8.70;99.90;;;;;;4951337;28;19938;-89
2023/03/14 12:58:43;;;;;;;;;;;8.30;99.90;;;;;;4951411;28;20330;-87
2023/03/14 13:01:15;;;;;;;;;;;8.40;99.90;;;;;;4932533;28;20330;-86
2023/03/14 13:03:53;;;;;;;;;;;8.40;99.90;;;;;;4951862;28;19960;-88
2023/03/14 13:06:37;;;;;;;;;;;7.90;99.90;;;;;;4951167;28;19972;-85
2023/03/14 13:09:29;;;;;;;;;;;7.90;99.90;;;;;;4934246;28;20028;-87
2023/03/14 13:12:35;;;;;;;;;;;7.80;99.90;;;;;;4936746;28;20523;-87
2023/03/14 13:15:03;;;;;;;;;;;7.70;99.90;;;;;;4897157;28;19939;-84
2023/03/14 13:17:33;;;;;;;;;;;7.90;99.90;;;;;;4951673;28;19969;-88
2023/03/14 13:20:19;;;;;;;;;;;6.70;99.90;;;;;;4967215;28;19985;-90
2023/03/14 13:22:46;;;;;;;;;;;6.40;99.90;;;;;;4952400;28;20013;-89
2023/03/14 13:25:12;;;;;;;;;;;8.20;99.90;;;;;;4935863;28;19934;-89
2023/03/14 13:27:41;;;;;;;;;;;7.90;99.90;;;;;;4934434;28;20279;-88
2023/03/14 13:30:26;;;;;;;;;;;6.90;99.90;;;;;;4935698;28;19926;-87
2023/03/14 13:32:53;;;;;;;;;;;8.30;99.90;;;;;;4967017;28;19927;-87
2023/03/14 13:35:20;;;;;;;;;;;8.40;99.90;;;;;;4947634;28;19937;-87
2023/03/14 13:37:46;;;;;;;;;;;8.00;98.20;;;;;;4948780;28;20048;-88
2023/03/14 13:40:45;;;;;;;;;;;8.20;99.90;;;;;;4935154;28;20024;-88
2023/03/14 13:43:21;;;;;;;;;;;8.00;96.20;;;;;;4900254;28;19930;-90
2023/03/14 13:45:51;;;;;;;;;;;9.10;99.50;;;;;;4968814;28;20021;-88
2023/03/14 13:48:19;;;;;;;;;;;7.90;99.90;;;;;;4966438;28;19926;-88
2023/03/14 13:51:02;;;;;;;;;;;8.00;99.70;;;;;;4935324;29;19990;-87
2023/03/14 13:53:28;;;;;;;;;;;8.20;99.90;;;;;;4930181;28;20013;-89
2023/03/14 13:56:01;;;;;;;;;;;8.20;99.90;;;;;;4936676;28;20102;-89
2023/03/14 13:58:28;;;;;;;;;;;7.60;97.80;;;;;;4949058;28;19933;-87
2023/03/14 14:01:07;;;;;;;;;;;8.00;98.40;;;;;;4964894;28;19952;-88
2023/03/14 14:03:36;;;;;;;;;;;8.40;99.90;;;;;;4963115;28;19927;-88
2023/03/14 14:06:03;;;;;;;;;;;9.40;99.90;;;;;;4963024;28;19930;-89
2023/03/14 14:08:31;;;;;;;;;;;8.40;99.90;;;;;;4952267;28;19927;-88
2023/03/14 14:18:57;;;;;;;;;;;;;;;;;;;;;
2023/03/14 14:21:10;;;;;;;;;;;8.00;96.40;;;;;;4956687;28;19930;-87
2023/03/14 14:23:38;;;;;;;;;;;8.20;95.90;;;;;;4948197;28;20082;-87
2023/03/14 14:26:05;;;;;;;;;;;8.00;97.30;;;;;;4951390;28;19930;-87
2023/03/14 14:28:32;;;;;;;;;;;8.40;97.10;;;;;;4950727;28;19926;-85
2023/03/14 14:31:04;;;;;;;;;;;7.80;98.10;;;;;;4951916;28;20009;-88
2023/03/14 14:33:37;;;;;;;;;;;7.60;98.70;;;;;;4956772;29;19933;-87
2023/03/14 14:36:03;;;;;;;;;;;7.60;99.90;;;;;;4957306;29;19927;-87
2023/03/14 14:38:30;;;;;;;;;;;7.50;99.90;;;;;;4957339;29;19981;-86
2023/03/14 14:40:59;;;;;;;;;;;7.40;99.90;;;;;;4956843;29;19933;-86
2023/03/14 14:43:27;;;;;;;;;;;7.20;99.90;;;;;;4973776;28;19933;-86
2023/03/14 14:45:54;;;;;;;;;;;7.40;99.90;;;;;;4973293;28;19941;-85
2023/03/14 14:48:23;;;;;;;;;;;7.00;99.90;;;;;;4956849;29;19926;-85
2023/03/14 14:50:59;;;;;;;;;;;7.00;99.90;;;;;;4973078;28;20359;-86
2023/03/14 14:53:36;;;;;;;;;;;7.30;99.90;;;;;;4973016;28;19934;-87
2023/03/14 14:56:16;;;;;;;;;;;7.60;99.90;;;;;;4957090;29;19933;-86
2023/03/14 14:58:44;;;;;;;;;;;7.60;99.90;;;;;;4958292;28;20330;-86